Time;durP1;ratioP1;P1;durP2;ratioP2;P2;SDS_P1;SDS_P2;PMS_P1;PMS_P2;Temp;Humidity;BMP_temperature;BMP_pressure;BME280_temperature;BME280_humidity;BME280_pressure;Samples;Min_cycle;Max_cycle;Signal;HPM_P1;HPM_P2
2023/12/06 00:00:20;;;;;;;9.77;5.13;;;6.10;99.90;;;;;;5030635;28;20178;-77
2023/12/06 00:02:47;;;;;;;8.50;5.20;;;6.10;99.90;;;;;;5032707;28;20201;-77
2023/12/06 00:05:12;;;;;;;9.90;5.00;;;5.90;99.90;;;;;;5047584;28;20193;-78
2023/12/06 00:07:38;;;;;;;11.50;4.73;;;6.10;99.90;;;;;;5034593;28;20167;-77
2023/12/06 00:10:04;;;;;;;8.00;4.90;;;6.60;99.90;;;;;;5034554;28;20656;-77
2023/12/06 00:12:31;;;;;;;9.67;4.80;;;6.70;99.90;;;;;;5051179;28;20182;-76
2023/12/06 00:14:57;;;;;;;11.03;4.67;;;6.10;99.90;;;;;;5040018;28;20214;-77
2023/12/06 00:17:23;;;;;;;7.80;4.50;;;;;;;;;;5035565;28;20680;-76
2023/12/06 00:19:49;;;;;;;7.30;4.53;;;5.80;99.90;;;;;;5028841;28;20185;-76
2023/12/06 00:22:15;;;;;;;7.37;4.30;;;;;;;;;;5013367;28;20185;-76
2023/12/06 00:24:40;;;;;;;10.83;4.20;;;6.00;99.90;;;;;;5012017;28;20209;-76
2023/12/06 00:27:06;;;;;;;7.57;4.50;;;5.70;99.90;;;;;;5029737;28;20259;-76
2023/12/06 00:29:32;;;;;;;11.90;4.50;;;6.00;99.90;;;;;;5029597;28;20177;-76
2023/12/06 00:31:57;;;;;;;7.17;3.87;;;5.90;99.90;;;;;;5030827;28;20177;-76
2023/12/06 00:34:23;;;;;;;7.90;4.20;;;5.80;99.90;;;;;;5029134;28;20210;-75
2023/12/06 00:36:49;;;;;;;7.47;3.77;;;5.80;99.90;;;;;;5029663;28;20260;-76
2023/12/06 00:39:14;;;;;;;11.17;3.83;;;5.60;99.90;;;;;;5029791;28;20177;-76
2023/12/06 00:41:41;;;;;;;6.00;3.77;;;5.80;99.90;;;;;;5029712;28;20192;-77
2023/12/06 00:44:07;;;;;;;6.83;3.63;;;5.70;99.90;;;;;;5030435;28;20227;-77
2023/12/06 00:46:33;;;;;;;6.13;3.97;;;5.50;99.90;;;;;;5029486;28;20205;-77
2023/12/06 00:49:00;;;;;;;7.13;3.07;;;5.30;99.90;;;;;;5029486;28;20181;-76
2023/12/06 00:51:26;;;;;;;7.33;2.80;;;5.40;99.90;;;;;;5035628;28;20237;-76
2023/12/06 00:53:52;;;;;;;6.40;3.10;;;5.40;99.90;;;;;;5040062;28;20214;-77
2023/12/06 00:56:18;;;;;;;5.80;2.77;;;5.10;99.90;;;;;;5030708;28;20220;-76
2023/12/06 00:58:44;;;;;;;9.93;3.07;;;5.30;99.90;;;;;;5032016;28;20173;-77
2023/12/06 01:01:11;;;;;;;8.20;3.70;;;5.50;99.90;;;;;;5029627;28;20723;-77
2023/12/06 01:03:37;;;;;;;7.47;3.47;;;5.20;99.90;;;;;;5031088;28;20174;-76
2023/12/06 01:06:03;;;;;;;9.07;3.97;;;5.90;99.90;;;;;;5029524;28;20687;-76
2023/12/06 01:08:29;;;;;;;7.47;3.00;;;5.20;99.90;;;;;;5029524;28;20268;-77
2023/12/06 01:10:55;;;;;;;5.57;3.03;;;5.20;99.90;;;;;;5029997;28;20261;-77
2023/12/06 01:13:20;;;;;;;6.27;2.97;;;5.20;99.90;;;;;;5029636;28;20185;-76
2023/12/06 01:15:46;;;;;;;5.87;3.10;;;4.90;99.90;;;;;;5030926;28;20267;-76
2023/12/06 01:18:13;;;;;;;5.90;2.60;;;4.90;99.90;;;;;;5029623;28;20169;-76
2023/12/06 01:20:39;;;;;;;5.37;2.50;;;5.00;99.90;;;;;;5029758;28;20253;-76
2023/12/06 01:23:07;;;;;;;8.73;2.67;;;6.50;99.90;;;;;;5028880;28;20259;-76
2023/12/06 01:25:33;;;;;;;4.93;2.70;;;;;;;;;;5033782;28;20177;-76
2023/12/06 01:28:00;;;;;;;7.40;3.07;;;4.60;99.90;;;;;;5053818;28;20236;-76
2023/12/06 01:30:25;;;;;;;11.23;3.00;;;4.60;99.90;;;;;;5045815;28;20186;-76
2023/12/06 01:32:51;;;;;;;6.80;2.73;;;4.20;99.90;;;;;;5033408;28;20185;-76
2023/12/06 01:35:17;;;;;;;7.63;2.70;;;4.20;99.90;;;;;;5030974;28;20742;-76
2023/12/06 01:37:43;;;;;;;8.93;2.90;;;;;;;;;;5030342;28;20212;-77
2023/12/06 01:40:09;;;;;;;7.87;2.50;;;4.00;99.90;;;;;;5031540;28;20193;-76
2023/12/06 01:42:35;;;;;;;5.87;2.77;;;4.40;99.90;;;;;;5033971;28;20244;-76
2023/12/06 01:45:01;;;;;;;6.80;3.10;;;4.00;99.90;;;;;;5031553;28;20181;-76
2023/12/06 01:47:28;;;;;;;3.90;2.63;;;3.80;99.90;;;;;;5025959;28;20663;-76
2023/12/06 01:49:56;;;;;;;5.93;3.17;;;3.80;99.90;;;;;;5032119;28;20184;-76
2023/12/06 01:52:21;;;;;;;5.10;2.83;;;3.90;99.90;;;;;;5015556;28;20304;-76
2023/12/06 01:54:48;;;;;;;7.50;3.23;;;3.60;99.90;;;;;;5032204;28;20300;-76
2023/12/06 01:57:14;;;;;;;8.20;3.43;;;3.80;99.90;;;;;;5033700;28;20184;-76
2023/12/06 01:59:40;;;;;;;10.60;3.43;;;3.80;99.90;;;;;;5032316;28;20174;-76
2023/12/06 02:02:06;;;;;;;7.50;3.80;;;3.70;99.90;;;;;;5016057;28;20236;-76
2023/12/06 02:04:36;;;;;;;6.40;3.60;;;3.70;99.90;;;;;;5032178;28;20201;-76
2023/12/06 02:07:02;;;;;;;6.47;3.50;;;;;;;;;;5032543;28;20178;-78
2023/12/06 02:09:28;;;;;;;7.40;3.20;;;3.60;99.90;;;;;;5033064;28;20185;-76
2023/12/06 02:11:53;;;;;;;6.93;3.50;;;3.70;99.90;;;;;;5032018;28;20174;-76
2023/12/06 02:14:20;;;;;;;6.83;2.97;;;3.60;99.90;;;;;;5032592;28;20212;-76
2023/12/06 02:16:46;;;;;;;6.83;2.97;;;;;;;;;;5032002;28;20205;-76
2023/12/06 02:19:25;;;;;;;7.03;3.40;;;3.50;99.90;;;;;;5032584;28;20178;-76
2023/12/06 02:21:51;;;;;;;6.83;3.10;;;3.90;99.90;;;;;;5031508;28;20181;-76
2023/12/06 02:24:18;;;;;;;8.03;3.47;;;3.40;99.90;;;;;;5033294;28;20700;-77
2023/12/06 02:26:43;;;;;;;9.07;2.97;;;3.40;99.90;;;;;;5032318;28;20221;-76
2023/12/06 02:29:09;;;;;;;8.13;3.67;;;;;;;;;;5033370;28;20186;-76
2023/12/06 02:31:35;;;;;;;8.27;3.43;;;3.70;99.90;;;;;;5031575;28;20197;-76
2023/12/06 02:34:06;;;;;;;5.50;3.43;;;5.20;99.90;;;;;;5033025;28;20205;-76
2023/12/06 02:36:33;;;;;;;8.20;3.60;;;3.40;99.90;;;;;;5031663;28;20668;-76
2023/12/06 02:38:59;;;;;;;7.27;3.33;;;3.30;99.90;;;;;;5031919;28;20182;-76
2023/12/06 02:41:27;;;;;;;5.77;3.10;;;3.30;99.90;;;;;;5032069;28;20184;-76
2023/12/06 02:43:53;;;;;;;11.80;4.07;;;;;;;;;;5028416;28;20188;-77
2023/12/06 02:46:19;;;;;;;6.87;3.77;;;3.10;99.90;;;;;;5032466;28;20231;-78
2023/12/06 02:48:44;;;;;;;6.00;3.33;;;3.30;99.90;;;;;;5014921;28;20181;-76
2023/12/06 02:51:10;;;;;;;10.60;3.43;;;3.20;99.90;;;;;;5030825;28;20610;-76
2023/12/06 02:53:36;;;;;;;9.20;3.90;;;3.00;99.90;;;;;;5013751;28;20660;-77
2023/12/06 02:56:01;;;;;;;6.43;3.30;;;3.00;99.90;;;;;;5032149;28;20224;-76
2023/12/06 02:58:27;;;;;;;8.27;3.50;;;3.00;99.90;;;;;;5030597;28;20177;-76
2023/12/06 03:00:52;;;;;;;6.70;3.50;;;2.90;99.90;;;;;;5013527;28;20192;-76
2023/12/06 03:03:18;;;;;;;7.73;3.43;;;2.80;99.90;;;;;;5030656;28;20753;-76
2023/12/06 03:05:44;;;;;;;9.80;3.20;;;2.70;99.90;;;;;;5032169;28;20547;-76
2023/12/06 03:08:14;;;;;;;8.63;3.63;;;2.60;99.90;;;;;;5030431;28;20656;-76
2023/12/06 03:10:39;;;;;;;6.80;3.20;;;2.80;99.90;;;;;;5028559;28;20219;-76
2023/12/06 03:13:05;;;;;;;5.67;2.93;;;2.60;99.90;;;;;;5030838;28;20611;-76
2023/12/06 03:15:31;;;;;;;7.23;3.10;;;;;;;;;;5030601;28;20222;-76
2023/12/06 03:17:57;;;;;;;5.97;3.00;;;2.70;99.90;;;;;;5031772;28;20659;-76
2023/12/06 03:20:22;;;;;;;6.20;2.90;;;2.50;99.90;;;;;;5029720;28;20232;-75
2023/12/06 03:22:48;;;;;;;6.43;3.27;;;;;;;;;;5028010;28;20177;-75
2023/12/06 03:25:14;;;;;;;7.23;3.37;;;2.60;99.90;;;;;;5030076;28;20614;-75
2023/12/06 03:27:42;;;;;;;7.20;3.47;;;2.40;99.90;;;;;;5032087;28;20205;-77
2023/12/06 03:30:08;;;;;;;6.70;3.50;;;2.30;99.90;;;;;;5027908;28;20197;-76
2023/12/06 03:32:33;;;;;;;6.00;3.40;;;2.40;99.90;;;;;;5028686;28;20732;-76
2023/12/06 03:34:59;;;;;;;7.83;3.33;;;2.40;99.90;;;;;;5029827;28;20309;-75
2023/12/06 03:37:25;;;;;;;7.93;3.20;;;2.20;99.90;;;;;;5031598;28;20186;-76
2023/12/06 03:39:50;;;;;;;7.77;3.60;;;2.20;99.90;;;;;;5030945;28;20205;-75
2023/12/06 03:42:16;;;;;;;6.50;3.00;;;2.10;99.90;;;;;;5030668;28;20213;-76
2023/12/06 03:44:42;;;;;;;8.57;3.77;;;2.20;99.90;;;;;;5013057;28;20232;-77
2023/12/06 03:47:07;;;;;;;11.00;3.27;;;2.10;99.90;;;;;;5029792;28;20177;-76
2023/12/06 03:49:33;;;;;;;12.20;3.63;;;2.00;99.90;;;;;;5037371;28;20182;-76
2023/12/06 03:51:59;;;;;;;9.03;3.40;;;1.90;99.90;;;;;;5038026;28;20218;-77
2023/12/06 03:54:25;;;;;;;5.83;3.67;;;1.90;99.90;;;;;;5032990;28;20180;-76
2023/12/06 03:56:50;;;;;;;9.37;3.90;;;1.90;99.90;;;;;;5034764;28;20186;-76
2023/12/06 03:59:17;;;;;;;6.43;3.30;;;2.00;99.90;;;;;;5055761;28;20200;-76
2023/12/06 04:01:44;;;;;;;6.77;3.60;;;2.20;99.90;;;;;;5044746;28;20205;-76
2023/12/06 04:04:11;;;;;;;7.37;3.40;;;1.80;99.90;;;;;;5035907;28;20193;-75
2023/12/06 04:06:37;;;;;;;9.33;3.60;;;1.50;99.90;;;;;;5031759;28;20178;-75
2023/12/06 04:09:03;;;;;;;7.77;3.50;;;2.10;99.90;;;;;;5031565;28;20186;-76
2023/12/06 04:11:28;;;;;;;6.90;3.47;;;2.20;99.90;;;;;;5032072;28;20174;-75
2023/12/06 04:13:54;;;;;;;8.60;3.60;;;2.00;99.90;;;;;;5030574;28;20178;-76
2023/12/06 04:16:20;;;;;;;7.20;3.90;;;1.80;99.90;;;;;;5031344;28;20206;-76
2023/12/06 04:18:46;;;;;;;8.73;3.83;;;;;;;;;;5029322;28;20169;-75
2023/12/06 04:21:11;;;;;;;6.80;3.90;;;1.70;99.90;;;;;;5030107;28;20182;-75
2023/12/06 04:23:37;;;;;;;9.63;3.53;;;1.60;99.90;;;;;;5011372;28;20194;-76
2023/12/06 04:26:03;;;;;;;9.73;3.63;;;;;;;;;;5030743;28;20173;-75
2023/12/06 04:28:29;;;;;;;11.23;3.67;;;1.90;99.90;;;;;;5029316;28;20180;-75
2023/12/06 04:30:55;;;;;;;9.40;4.10;;;1.80;99.90;;;;;;5029819;28;20280;-75
2023/12/06 04:33:20;;;;;;;7.53;3.90;;;2.00;99.90;;;;;;5030459;28;20204;-76
2023/12/06 04:35:46;;;;;;;10.57;3.80;;;2.00;99.90;;;;;;5029527;28;20676;-75
2023/12/06 04:38:12;;;;;;;5.80;3.20;;;2.00;99.90;;;;;;5030519;28;20174;-76
2023/12/06 04:40:37;;;;;;;7.17;3.97;;;2.00;99.90;;;;;;5028782;28;20232;-75
2023/12/06 04:43:03;;;;;;;6.33;3.40;;;2.00;99.90;;;;;;5029504;28;20220;-76
2023/12/06 04:45:29;;;;;;;9.17;4.00;;;1.80;99.90;;;;;;5029155;28;20185;-75
2023/12/06 04:47:55;;;;;;;7.33;4.37;;;2.20;99.90;;;;;;5030277;28;20264;-76
2023/12/06 04:50:20;;;;;;;9.63;4.10;;;2.00;99.90;;;;;;5027941;28;20626;-75
2023/12/06 04:52:46;;;;;;;6.07;3.83;;;1.70;99.90;;;;;;5030202;28;20243;-75
2023/12/06 04:55:12;;;;;;;7.40;3.93;;;;;;;;;;5027228;28;20706;-75
2023/12/06 04:57:37;;;;;;;9.13;4.13;;;1.90;99.90;;;;;;5025749;28;20197;-75
2023/12/06 05:00:07;;;;;;;8.40;3.87;;;1.70;99.90;;;;;;5029990;28;20643;-75
2023/12/06 05:02:33;;;;;;;7.03;3.67;;;;;;;;;;5029514;28;20177;-75
2023/12/06 05:04:59;;;;;;;10.10;3.60;;;1.50;99.90;;;;;;5012527;28;20185;-76
2023/12/06 05:07:24;;;;;;;7.97;3.93;;;1.80;99.90;;;;;;5026502;28;20659;-75
2023/12/06 05:09:50;;;;;;;6.53;4.07;;;1.70;99.90;;;;;;5030337;28;20223;-77
2023/12/06 05:12:16;;;;;;;8.73;4.00;;;;;;;;;;5028577;28;20196;-75
2023/12/06 05:14:42;;;;;;;9.00;3.87;;;1.80;99.90;;;;;;5033425;28;20735;-75
2023/12/06 05:17:07;;;;;;;7.47;4.37;;;1.80;99.90;;;;;;5032709;28;20214;-75
2023/12/06 05:19:33;;;;;;;9.63;4.63;;;;;;;;;;5034374;28;20360;-76
2023/12/06 05:21:59;;;;;;;7.63;4.40;;;;;;;;;;5031781;28;20197;-76
2023/12/06 05:24:25;;;;;;;11.27;4.70;;;1.30;99.90;;;;;;5033982;28;20204;-76
2023/12/06 05:26:50;;;;;;;6.33;3.93;;;1.60;99.90;;;;;;5032583;28;20640;-76
2023/12/06 05:29:17;;;;;;;11.13;4.37;;;;;;;;;;5034093;28;20178;-76
2023/12/06 05:31:43;;;;;;;7.93;4.17;;;;;;;;;;5034622;28;20193;-76
2023/12/06 05:34:09;;;;;;;10.80;4.00;;;;;;;;;;5032140;28;20185;-75
2023/12/06 05:36:34;;;;;;;8.73;4.43;;;1.60;99.90;;;;;;5033725;28;20664;-75
2023/12/06 05:39:00;;;;;;;10.70;4.70;;;1.70;99.90;;;;;;5032097;28;20170;-76
2023/12/06 05:41:26;;;;;;;7.33;4.40;;;1.60;99.90;;;;;;5032780;28;20233;-75
2023/12/06 05:43:52;;;;;;;14.63;4.90;;;1.50;99.90;;;;;;5031378;28;20174;-76
2023/12/06 05:46:18;;;;;;;9.30;4.63;;;;;;;;;;5033521;28;20217;-75
2023/12/06 05:48:44;;;;;;;10.50;5.00;;;1.40;99.90;;;;;;5031840;28;20240;-76
2023/12/06 05:51:10;;;;;;;11.77;4.87;;;1.30;99.90;;;;;;5032687;28;20221;-76
2023/12/06 05:53:37;;;;;;;11.63;5.03;;;1.40;99.90;;;;;;5034673;28;20193;-76
2023/12/06 05:56:03;;;;;;;11.30;4.80;;;1.60;99.90;;;;;;5034410;28;20252;-77
2023/12/06 05:58:29;;;;;;;12.13;4.60;;;1.40;99.90;;;;;;5033554;28;20178;-77
2023/12/06 06:00:54;;;;;;;15.13;5.10;;;1.40;99.90;;;;;;5031993;28;20276;-75
2023/12/06 06:03:20;;;;;;;9.73;4.93;;;1.80;99.90;;;;;;5035347;28;20182;-75
2023/12/06 06:05:45;;;;;;;9.13;4.30;;;1.50;99.90;;;;;;5034381;28;20218;-76
2023/12/06 06:08:11;;;;;;;9.00;5.03;;;1.40;99.90;;;;;;5034110;28;20600;-75
2023/12/06 06:10:37;;;;;;;9.60;5.20;;;1.50;99.90;;;;;;5033039;28;20201;-77
2023/12/06 06:13:03;;;;;;;10.87;5.03;;;;;;;;;;5018035;28;20181;-77
2023/12/06 06:15:28;;;;;;;12.80;4.90;;;1.70;99.90;;;;;;5031774;28;20264;-77
2023/12/06 06:17:54;;;;;;;10.73;5.43;;;;;;;;;;5033449;28;20225;-77
2023/12/06 06:20:20;;;;;;;11.00;4.67;;;1.80;99.90;;;;;;5014034;28;20784;-77
2023/12/06 06:22:46;;;;;;;12.50;5.67;;;1.70;99.90;;;;;;5032344;28;20178;-77
2023/12/06 06:25:11;;;;;;;10.90;4.93;;;1.30;99.90;;;;;;5032489;28;20540;-77
2023/12/06 06:27:37;;;;;;;9.90;4.73;;;1.10;99.90;;;;;;5030982;28;20667;-77
2023/12/06 06:30:03;;;;;;;10.40;4.93;;;1.90;99.90;;;;;;5048885;28;20182;-76
2023/12/06 06:32:29;;;;;;;16.03;5.20;;;2.10;99.90;;;;;;5055789;28;20200;-76
2023/12/06 06:34:55;;;;;;;7.43;4.70;;;1.90;99.90;;;;;;5038391;28;20210;-77
2023/12/06 06:37:20;;;;;;;10.33;5.23;;;1.80;99.90;;;;;;5034471;28;20551;-77
2023/12/06 06:39:46;;;;;;;12.90;4.90;;;2.00;99.90;;;;;;5033022;28;20209;-77
2023/12/06 06:42:12;;;;;;;9.03;5.30;;;1.80;99.90;;;;;;5031412;28;20201;-76
2023/12/06 06:44:37;;;;;;;11.67;4.80;;;2.20;99.90;;;;;;5033297;28;20553;-77
2023/12/06 06:47:03;;;;;;;15.63;5.13;;;2.00;99.90;;;;;;5035181;28;20181;-77
2023/12/06 06:49:29;;;;;;;10.17;5.47;;;;;;;;;;5040099;28;20185;-77
2023/12/06 06:51:55;;;;;;;9.87;5.07;;;1.80;99.90;;;;;;5033966;28;20214;-77
2023/12/06 06:54:20;;;;;;;13.67;5.70;;;2.00;99.90;;;;;;5032873;28;20699;-76
2023/12/06 06:56:46;;;;;;;25.13;5.43;;;2.20;99.90;;;;;;5032423;28;20186;-77
2023/12/06 06:59:12;;;;;;;13.77;5.77;;;;;;;;;;5013710;28;20187;-77
2023/12/06 07:01:38;;;;;;;10.60;5.57;;;2.60;99.90;;;;;;5032825;28;20646;-77
2023/12/06 07:04:04;;;;;;;13.93;5.63;;;2.20;99.90;;;;;;5028775;28;20189;-77
2023/12/06 07:06:30;;;;;;;9.33;5.63;;;2.50;99.90;;;;;;5029262;28;20232;-76
2023/12/06 07:08:55;;;;;;;10.43;5.63;;;2.40;99.90;;;;;;5031719;28;20683;-77
2023/12/06 07:11:21;;;;;;;12.50;5.73;;;2.10;99.90;;;;;;5011348;28;20186;-77
2023/12/06 07:13:48;;;;;;;13.03;5.73;;;2.10;99.90;;;;;;5031130;28;20174;-77
2023/12/06 07:16:13;;;;;;;12.00;5.87;;;2.40;99.90;;;;;;5031401;28;20236;-76
2023/12/06 07:18:39;;;;;;;13.93;5.50;;;2.00;99.90;;;;;;5016029;28;20182;-76
2023/12/06 07:21:05;;;;;;;9.80;5.43;;;2.20;99.90;;;;;;5032596;28;20252;-77
2023/12/06 07:23:31;;;;;;;11.83;5.40;;;2.20;99.90;;;;;;5032202;28;20174;-77
2023/12/06 07:25:58;;;;;;;10.53;5.20;;;2.20;99.90;;;;;;5024527;28;20276;-77
2023/12/06 07:28:24;;;;;;;11.37;5.73;;;2.20;99.90;;;;;;5016103;28;20178;-77
2023/12/06 07:30:50;;;;;;;12.67;6.23;;;;;;;;;;5031219;28;20186;-76
2023/12/06 07:33:15;;;;;;;11.23;6.00;;;2.20;99.90;;;;;;5032304;28;20245;-76
2023/12/06 07:35:42;;;;;;;11.27;6.10;;;;;;;;;;5031077;28;20272;-76
2023/12/06 07:38:09;;;;;;;13.13;6.10;;;2.40;99.90;;;;;;5034795;28;20206;-76
2023/12/06 07:40:36;;;;;;;12.00;5.97;;;2.20;99.90;;;;;;5032172;28;20185;-77
2023/12/06 07:43:02;;;;;;;10.43;5.67;;;2.30;99.90;;;;;;5031928;28;20632;-77
2023/12/06 07:45:27;;;;;;;9.83;6.20;;;2.40;99.90;;;;;;5030578;28;20177;-76
2023/12/06 07:47:53;;;;;;;12.93;5.97;;;2.20;99.90;;;;;;5030425;28;20710;-76
2023/12/06 07:50:20;;;;;;;13.83;6.20;;;2.60;99.90;;;;;;5036201;28;20548;-77
2023/12/06 07:52:47;;;;;;;12.73;6.57;;;2.30;99.90;;;;;;5033534;28;20214;-77
2023/12/06 07:55:14;;;;;;;14.60;8.27;;;;;;;;;;5031623;28;20263;-76
2023/12/06 07:57:40;;;;;;;15.07;6.87;;;2.60;99.90;;;;;;5030137;28;20201;-76
2023/12/06 08:00:07;;;;;;;14.60;6.93;;;2.70;99.90;;;;;;5036718;28;20166;-75
2023/12/06 08:02:39;;;;;;;12.93;6.50;;;2.60;99.90;;;;;;5033938;28;20209;-77
2023/12/06 08:05:09;;;;;;;11.07;5.90;;;2.70;99.90;;;;;;5031025;28;20188;-76
2023/12/06 08:07:35;;;;;;;14.07;6.20;;;2.80;99.90;;;;;;5030208;28;20272;-76
2023/12/06 08:10:08;;;;;;;12.60;6.73;;;2.60;99.90;;;;;;5031202;28;20220;-76
2023/12/06 08:12:34;;;;;;;12.97;6.87;;;2.80;99.90;;;;;;5029833;28;20232;-75
2023/12/06 08:14:59;;;;;;;18.73;6.90;;;3.00;99.90;;;;;;5032244;28;20231;-76
2023/12/06 08:17:25;;;;;;;12.27;6.43;;;3.00;99.90;;;;;;5029711;28;20683;-77
2023/12/06 08:19:51;;;;;;;12.87;7.23;;;3.00;99.90;;;;;;5031330;28;20186;-76
2023/12/06 08:22:16;;;;;;;11.60;6.40;;;3.10;99.90;;;;;;5030591;28;20177;-77
2023/12/06 08:24:42;;;;;;;15.07;6.50;;;;;;;;;;5030511;28;20204;-77
2023/12/06 08:27:09;;;;;;;15.33;7.40;;;;;;;;;;5031136;28;20188;-77
2023/12/06 08:29:34;;;;;;;14.30;6.97;;;3.20;99.90;;;;;;5030754;28;20174;-76
2023/12/06 08:32:00;;;;;;;12.13;6.70;;;3.20;99.90;;;;;;5030373;28;20239;-77
2023/12/06 08:34:27;;;;;;;17.63;7.93;;;3.00;99.90;;;;;;5029634;28;20281;-77
2023/12/06 08:36:53;;;;;;;17.03;8.87;;;3.50;99.90;;;;;;5030535;28;20675;-77
2023/12/06 08:39:19;;;;;;;21.47;9.33;;;3.20;99.90;;;;;;5032369;28;20201;-77
2023/12/06 08:41:45;;;;;;;21.17;9.73;;;;;;;;;;5162003;22;20366;-76
2023/12/06 08:44:11;;;;;;;19.87;10.47;;;3.70;99.90;;;;;;5066862;28;20181;-76
2023/12/06 08:46:37;;;;;;;19.13;9.37;;;4.10;99.90;;;;;;5054779;28;20235;-76
2023/12/06 08:49:03;;;;;;;20.80;10.03;;;4.20;99.90;;;;;;5045908;28;20193;-77
2023/12/06 08:51:29;;;;;;;21.80;10.03;;;4.10;99.90;;;;;;5050520;28;20189;-77
2023/12/06 08:53:54;;;;;;;18.70;9.83;;;4.30;99.90;;;;;;5051824;28;20247;-76
2023/12/06 08:56:20;;;;;;;16.80;10.00;;;4.60;99.90;;;;;;5044924;28;20212;-76
2023/12/06 08:58:45;;;;;;;19.07;10.27;;;4.80;99.90;;;;;;5050027;28;20181;-77
2023/12/06 09:01:11;;;;;;;19.00;10.50;;;4.90;99.90;;;;;;5044782;28;20602;-77
2023/12/06 09:03:37;;;;;;;23.47;10.67;;;4.80;99.90;;;;;;5047802;28;20173;-76
2023/12/06 09:06:03;;;;;;;20.17;10.10;;;4.90;99.90;;;;;;5049751;28;20201;-77
2023/12/06 09:08:29;;;;;;;18.83;9.80;;;4.70;99.90;;;;;;5070259;28;20173;-77
2023/12/06 09:10:54;;;;;;;18.70;9.43;;;4.40;99.90;;;;;;5068639;28;20690;-75
2023/12/06 09:13:20;;;;;;;19.43;10.03;;;4.60;99.90;;;;;;5037142;28;20191;-76
2023/12/06 09:15:45;;;;;;;22.97;10.27;;;4.60;99.90;;;;;;5029886;28;20204;-76
2023/12/06 09:18:11;;;;;;;18.10;10.53;;;5.40;99.90;;;;;;5046175;28;20174;-76
2023/12/06 09:20:37;;;;;;;21.27;11.03;;;4.80;99.90;;;;;;5050127;28;20185;-76
2023/12/06 09:23:02;;;;;;;23.40;10.90;;;5.00;99.90;;;;;;5044576;28;20222;-76
2023/12/06 09:25:28;;;;;;;21.27;11.13;;;4.70;99.90;;;;;;5046800;28;20186;-74
2023/12/06 09:27:54;;;;;;;18.43;10.50;;;4.20;99.90;;;;;;5045654;28;20173;-76
2023/12/06 09:30:19;;;;;;;18.70;10.23;;;4.50;99.90;;;;;;5048423;28;20707;-75
2023/12/06 09:32:46;;;;;;;23.53;11.30;;;4.40;99.90;;;;;;5044023;28;20183;-76
2023/12/06 09:35:11;;;;;;;25.73;11.43;;;4.50;99.90;;;;;;5044631;28;20205;-75
2023/12/06 09:37:37;;;;;;;21.67;9.87;;;5.10;99.90;;;;;;5048335;28;20522;-76
2023/12/06 09:40:04;;;;;;;20.10;10.47;;;4.40;99.90;;;;;;5052798;28;20180;-76
2023/12/06 09:42:33;;;;;;;19.33;10.40;;;4.90;99.90;;;;;;5041009;28;20214;-75
2023/12/06 09:45:01;;;;;;;20.37;10.50;;;4.80;99.90;;;;;;5049804;28;20170;-76
2023/12/06 09:47:29;;;;;;;21.10;9.20;;;5.00;99.90;;;;;;5043241;28;20678;-76
2023/12/06 09:49:54;;;;;;;20.07;10.10;;;5.30;99.90;;;;;;5052244;28;20173;-76
2023/12/06 09:52:22;;;;;;;22.37;10.83;;;5.30;99.90;;;;;;5058921;28;20173;-76
2023/12/06 09:54:50;;;;;;;21.27;10.93;;;5.30;99.90;;;;;;5046192;28;20223;-75
2023/12/06 09:57:17;;;;;;;15.60;9.23;;;5.40;99.90;;;;;;5047154;28;20182;-76
2023/12/06 09:59:43;;;;;;;18.60;10.00;;;5.40;99.90;;;;;;5027597;28;20216;-76
2023/12/06 10:02:09;;;;;;;20.27;9.80;;;;;;;;;;5049467;28;20213;-76
2023/12/06 10:04:35;;;;;;;21.43;10.63;;;4.30;99.90;;;;;;5049688;28;20187;-76
2023/12/06 10:07:01;;;;;;;18.17;10.53;;;4.90;99.90;;;;;;5042885;28;20177;-74
2023/12/06 10:09:27;;;;;;;21.17;9.80;;;5.10;99.90;;;;;;5047933;28;20272;-78
2023/12/06 10:12:07;;;;;;;21.10;10.07;;;5.50;99.90;;;;;;5050917;28;20632;-76
2023/12/06 10:14:33;;;;;;;16.07;9.63;;;5.70;99.90;;;;;;5050207;28;20203;-76
2023/12/06 10:16:59;;;;;;;16.57;9.33;;;5.80;99.90;;;;;;5032758;28;20558;-76
2023/12/06 10:19:25;;;;;;;20.43;9.13;;;5.20;99.90;;;;;;5047596;28;20173;-76
2023/12/06 10:21:51;;;;;;;23.23;10.80;;;;;;;;;;5049005;28;20185;-76
2023/12/06 10:24:16;;;;;;;22.20;9.73;;;6.10;99.90;;;;;;5051534;28;20184;-76
2023/12/06 10:26:42;;;;;;;19.17;9.83;;;6.10;99.90;;;;;;5040103;28;20717;-74
2023/12/06 10:29:08;;;;;;;19.73;9.63;;;6.30;99.90;;;;;;5031102;28;20582;-76
2023/12/06 10:31:38;;;;;;;15.37;8.77;;;6.50;99.90;;;;;;5029226;28;20182;-76
2023/12/06 10:34:06;;;;;;;16.67;8.63;;;6.40;99.90;;;;;;5052902;28;20177;-76
2023/12/06 10:36:32;;;;;;;19.33;9.30;;;6.40;99.90;;;;;;5047252;28;20745;-76
2023/12/06 10:38:59;;;;;;;21.00;9.30;;;6.30;99.90;;;;;;5040498;28;20268;-76
2023/12/06 10:41:31;;;;;;;24.83;9.63;;;6.30;99.90;;;;;;5050427;28;20225;-76
2023/12/06 10:43:59;;;;;;;17.13;9.03;;;6.40;99.90;;;;;;5048331;28;20319;-75
2023/12/06 10:46:26;;;;;;;18.43;8.83;;;6.00;99.90;;;;;;5030710;28;20302;-76
2023/12/06 10:48:54;;;;;;;13.87;8.77;;;6.10;99.90;;;;;;5032167;28;20644;-76
2023/12/06 10:51:20;;;;;;;21.00;8.77;;;5.90;99.90;;;;;;5038351;28;20264;-76
2023/12/06 10:53:47;;;;;;;13.20;8.03;;;5.30;99.90;;;;;;5031451;28;20188;-76
2023/12/06 10:56:18;;;;;;;19.27;9.13;;;5.60;99.90;;;;;;5046759;28;20219;-77
2023/12/06 10:58:46;;;;;;;18.50;8.60;;;6.10;99.90;;;;;;5048413;28;20656;-76
2023/12/06 11:01:13;;;;;;;17.10;7.73;;;5.60;99.90;;;;;;5032453;28;20276;-76
2023/12/06 11:03:39;;;;;;;14.67;7.40;;;5.50;99.90;;;;;;5048788;28;20192;-75
2023/12/06 11:06:33;;;;;;;12.23;7.10;;;5.20;99.90;;;;;;5030000;28;20181;-78
2023/12/06 11:09:20;;;;;;;13.50;7.97;;;5.10;99.90;;;;;;5035609;28;20246;-78
2023/12/06 11:12:05;;;;;;;17.90;9.07;;;5.50;99.90;;;;;;5047038;28;20208;-77
2023/12/06 11:15:04;;;;;;;12.70;7.57;;;5.00;99.90;;;;;;5051443;28;20679;-78
2023/12/06 11:18:08;;;;;;;16.50;8.93;;;5.30;99.90;;;;;;5041910;28;20212;-76
2023/12/06 11:20:34;;;;;;;15.27;7.30;;;5.10;99.90;;;;;;5047812;28;20254;-76
2023/12/06 11:22:59;;;;;;;13.93;8.07;;;5.30;99.90;;;;;;5051401;28;20186;-76
2023/12/06 11:25:25;;;;;;;16.43;8.20;;;5.30;99.90;;;;;;5049603;28;20686;-76
2023/12/06 11:27:52;;;;;;;14.87;7.37;;;5.00;99.90;;;;;;5049055;28;20199;-76
2023/12/06 11:30:19;;;;;;;12.60;7.33;;;;;;;;;;5048812;28;20178;-76
2023/12/06 11:32:45;;;;;;;13.17;7.47;;;;;;;;;;5067318;28;20189;-76
2023/12/06 11:35:11;;;;;;;12.83;7.50;;;4.70;99.90;;;;;;5045742;28;20221;-77
2023/12/06 11:37:37;;;;;;;12.67;7.03;;;4.80;99.90;;;;;;5050854;28;20203;-77
2023/12/06 11:40:18;;;;;;;12.33;7.40;;;4.80;99.90;;;;;;5046092;28;20235;-77
2023/12/06 11:42:52;;;;;;;14.10;7.90;;;5.10;99.90;;;;;;5047816;28;20896;-77
2023/12/06 11:45:25;;;;;;;14.37;7.67;;;5.30;99.90;;;;;;5072320;28;20240;-76
2023/12/06 11:47:52;;;;;;;16.87;8.80;;;5.00;99.90;;;;;;5067805;28;20598;-76
2023/12/06 11:50:19;;;;;;;16.57;7.77;;;5.00;99.90;;;;;;5051564;28;20170;-77
2023/12/06 11:52:52;;;;;;;16.87;8.27;;;5.10;99.90;;;;;;5053275;28;20182;-76
2023/12/06 11:55:19;;;;;;;17.23;8.20;;;3.70;99.90;;;;;;5049490;28;20279;-77
2023/12/06 11:58:17;;;;;;;16.57;8.03;;;4.80;99.90;;;;;;5047129;28;20185;-77
2023/12/06 12:00:44;;;;;;;14.33;7.77;;;4.70;99.90;;;;;;5001129;28;20662;-77
2023/12/06 12:03:11;;;;;;;13.20;7.00;;;5.00;99.90;;;;;;5045334;28;20320;-77
2023/12/06 12:05:37;;;;;;;12.70;7.27;;;4.60;99.90;;;;;;5049893;28;20177;-77
2023/12/06 12:08:04;;;;;;;12.30;7.07;;;4.50;99.90;;;;;;5027342;28;20189;-75
2023/12/06 12:10:30;;;;;;;14.77;8.07;;;4.50;99.90;;;;;;5046948;28;20181;-76
2023/12/06 12:12:57;;;;;;;11.53;6.97;;;4.20;99.90;;;;;;5031064;28;20181;-75
2023/12/06 12:15:25;;;;;;;14.00;7.67;;;4.30;99.90;;;;;;5028234;28;20216;-76
2023/12/06 12:17:51;;;;;;;11.43;7.20;;;4.60;99.90;;;;;;5046784;28;20181;-75
2023/12/06 12:20:17;;;;;;;14.87;8.03;;;4.50;99.90;;;;;;5048444;28;20264;-76
2023/12/06 12:22:44;;;;;;;15.30;7.77;;;4.40;99.90;;;;;;5046098;28;20232;-75
2023/12/06 12:25:09;;;;;;;13.13;7.47;;;4.60;99.90;;;;;;5045282;28;20182;-75
2023/12/06 12:27:35;;;;;;;12.93;7.20;;;4.30;99.90;;;;;;5049783;28;20714;-77
2023/12/06 12:30:01;;;;;;;18.00;7.90;;;4.30;99.90;;;;;;5044984;28;20652;-78
2023/12/06 12:32:28;;;;;;;12.80;8.27;;;4.10;99.90;;;;;;5046601;28;20177;-77
2023/12/06 12:34:54;;;;;;;17.40;8.67;;;4.20;99.90;;;;;;5043057;28;20205;-77
2023/12/06 12:37:20;;;;;;;12.80;6.87;;;4.40;99.90;;;;;;5029446;28;20187;-77
2023/12/06 12:39:46;;;;;;;15.77;8.13;;;4.20;99.90;;;;;;5045143;28;20180;-77
2023/12/06 12:42:12;;;;;;;19.93;8.57;;;4.50;99.90;;;;;;5046513;28;20213;-77
2023/12/06 12:44:38;;;;;;;12.60;7.37;;;;;;;;;;5049439;28;20185;-77
2023/12/06 12:47:05;;;;;;;14.83;7.80;;;2.50;99.90;;;;;;5045660;28;20242;-77
2023/12/06 12:49:30;;;;;;;13.47;8.40;;;4.40;99.90;;;;;;5046606;28;20200;-76
2023/12/06 12:51:56;;;;;;;15.17;8.13;;;5.10;99.90;;;;;;5026248;28;20651;-76
2023/12/06 12:54:21;;;;;;;17.30;8.23;;;5.90;99.90;;;;;;5046280;28;20180;-77
2023/12/06 12:56:48;;;;;;;13.40;7.87;;;7.30;99.90;;;;;;5045876;28;20213;-76